Time;durP1;ratioP1;P1;durP2;ratioP2;P2;SDS_P1;SDS_P2;PMS_P1;PMS_P2;Temp;Humidity;BMP_temperature;BMP_pressure;BME280_temperature;BME280_humidity;BME280_pressure;Samples;Min_cycle;Max_cycle;Signal;HPM_P1;HPM_P2
2022/07/23 00:02:03;;;;;;;;;44.67;37.33;;;;;23.91;66.01;100979.38;111265;1257;19752;-86
2022/07/23 00:04:31;;;;;;;;;46.67;37.67;;;;;23.93;66.12;100984.15;111248;1257;20394;-85
2022/07/23 00:06:58;;;;;;;;;44.00;37.33;;;;;24.10;65.62;100982.00;111293;1257;24612;-85
2022/07/23 00:09:26;;;;;;;;;38.00;36.00;;;;;23.96;66.02;100981.67;111351;1258;20918;-85
2022/07/23 00:11:53;;;;;;;;;39.50;35.50;;;;;24.21;65.31;100984.36;111299;1257;23447;-85
2022/07/23 00:14:21;;;;;;;;;42.00;37.67;;;;;24.25;64.99;100981.84;111269;1257;19348;-85
2022/07/23 00:16:48;;;;;;;;;34.00;29.67;;;;;24.22;65.00;100979.52;111293;1257;19672;-85
2022/07/23 00:19:15;;;;;;;;;38.00;35.00;;;;;24.33;64.78;100977.73;111301;1258;20555;-86
2022/07/23 00:21:43;;;;;;;;;38.67;35.00;;;;;24.49;64.20;100975.45;111370;1257;20283;-85
2022/07/23 00:24:10;;;;;;;;;39.33;35.33;;;;;24.38;64.31;100970.36;111254;1257;23577;-85
2022/07/23 00:26:37;;;;;;;;;43.33;36.00;;;;;24.37;64.19;100977.13;111279;1258;22254;-86
2022/07/23 00:29:05;;;;;;;;;36.33;33.00;;;;;24.18;64.48;100981.70;111303;1258;19240;-86
2022/07/23 00:31:32;;;;;;;;;34.50;32.00;;;;;24.27;64.57;100979.63;111277;1258;21313;-85
2022/07/23 00:34:00;;;;;;;;;40.00;34.00;;;;;24.14;64.57;100979.84;111289;1258;23798;-85
2022/07/23 00:36:28;;;;;;;;;35.33;33.33;;;;;23.99;64.89;100977.58;111335;1258;21484;-87
2022/07/23 00:38:56;;;;;;;;;38.33;33.67;;;;;23.91;65.25;100976.84;111169;1258;22154;-86
2022/07/23 00:41:23;;;;;;;;;32.67;32.67;;;;;23.91;65.13;100976.55;111282;1257;22121;-86
2022/07/23 00:43:50;;;;;;;;;36.00;31.50;;;;;23.94;64.87;100979.16;111291;1257;19416;-86
2022/07/23 00:46:18;;;;;;;;;34.33;32.00;;;;;23.96;64.90;100980.66;111301;1258;19669;-86
2022/07/23 00:48:45;;;;;;;;;33.00;31.00;;;;;24.18;64.14;100974.71;111354;1257;22559;-85
2022/07/23 00:51:12;;;;;;;;;32.00;29.33;;;;;24.07;64.44;100974.47;111335;1258;21940;-85
2022/07/23 00:53:40;;;;;;;;;34.00;33.33;;;;;23.97;64.60;100969.89;111392;1258;19606;-85
2022/07/23 00:56:07;;;;;;;;;34.50;31.00;;;;;23.93;64.50;100969.38;111453;1257;20265;-85
2022/07/23 00:58:35;;;;;;;;;32.67;32.67;;;;;23.74;65.25;100975.62;111393;1258;19308;-87
2022/07/23 01:01:02;;;;;;;;;38.33;34.67;;;;;23.89;64.89;100970.63;111278;1257;23260;-85
2022/07/23 01:03:30;;;;;;;;;33.00;30.00;;;;;23.95;64.69;100969.02;111162;1258;20337;-84
2022/07/23 01:05:57;;;;;;;;;32.33;28.67;;;;;24.14;64.20;100967.93;111263;1258;23762;-85
2022/07/23 01:08:24;;;;;;;;;33.33;29.33;;;;;24.00;64.17;100969.55;111295;1257;19907;-85
2022/07/23 01:10:52;;;;;;;;;42.00;33.67;;;;;23.81;64.79;100969.18;111254;1257;20591;-86
2022/07/23 01:13:19;;;;;;;;;35.67;33.00;;;;;23.74;64.91;100962.98;111315;1257;19236;-84
2022/07/23 01:15:46;;;;;;;;;34.33;29.00;;;;;23.61;65.29;100972.95;111394;1257;23575;-85
2022/07/23 01:18:14;;;;;;;;;37.33;33.00;;;;;23.59;65.34;100973.96;111355;1257;23628;-86
2022/07/23 01:20:41;;;;;;;;;30.33;29.00;;;;;23.60;65.42;100975.44;111279;1258;22871;-85
2022/07/23 01:23:08;;;;;;;;;32.33;30.00;;;;;23.48;65.63;100973.44;111271;1258;21534;-84
2022/07/23 01:25:35;;;;;;;;;33.00;31.67;;;;;23.42;65.92;100969.95;111359;1257;20297;-86
2022/07/23 01:28:03;;;;;;;;;31.33;30.33;;;;;23.49;65.90;100967.27;111326;1258;24868;-87
2022/07/23 01:30:30;;;;;;;;;32.50;30.50;;;;;23.50;65.91;100965.73;111441;1258;19549;-84
2022/07/23 01:32:57;;;;;;;;;40.00;35.00;;;;;23.43;66.08;100967.30;111233;1258;23059;-87
2022/07/23 01:35:25;;;;;;;;;40.33;36.00;;;;;23.27;66.47;100972.21;111556;1257;20105;-87
2022/07/23 01:37:53;;;;;;;;;34.00;34.00;;;;;23.38;66.40;100973.42;111371;1258;21418;-86
2022/07/23 01:40:20;;;;;;;;;40.00;36.67;;;;;23.31;66.04;100972.44;111344;1258;21708;-87
2022/07/23 01:42:48;;;;;;;;;42.00;35.67;;;;;23.16;66.72;100967.30;111318;1258;19373;-87
2022/07/23 01:45:15;;;;;;;;;36.00;35.00;;;;;23.13;66.93;100967.20;111092;1259;19909;-87
2022/07/23 01:47:42;;;;;;;;;40.33;36.33;;;;;23.20;66.86;100963.81;111308;1258;20374;-86
2022/07/23 01:50:09;;;;;;;;;40.50;36.50;;;;;23.16;66.92;100958.08;111322;1257;22202;-86
2022/07/23 01:52:37;;;;;;;;;44.00;37.00;;;;;23.17;66.92;100954.52;111292;1256;19605;-86
2022/07/23 01:55:05;;;;;;;;;44.00;36.33;;;;;23.15;66.80;100954.36;111281;1258;20590;-86
2022/07/23 01:57:32;;;;;;;;;42.00;37.67;;;;;23.05;67.19;100956.65;111356;1258;19528;-85
2022/07/23 02:00:00;;;;;;;;;46.67;39.00;;;;;22.99;67.38;100956.09;111311;1257;21921;-85
2022/07/23 02:02:27;;;;;;;;;41.00;37.33;;;;;22.97;67.48;100954.92;111298;1257;20301;-86
2022/07/23 02:04:54;;;;;;;;;42.00;36.67;;;;;23.11;67.27;100954.88;111298;1258;23378;-86
2022/07/23 02:07:22;;;;;;;;;42.33;36.67;;;;;23.23;66.81;100947.11;111323;1258;19563;-84
2022/07/23 02:09:49;;;;;;;;;40.00;37.00;;;;;23.14;66.78;100952.49;111336;1257;20452;-85
2022/07/23 02:12:16;;;;;;;;;45.50;39.00;;;;;23.05;67.01;100947.70;111315;1257;19361;-85
2022/07/23 02:14:43;;;;;;;;;44.67;39.67;;;;;23.03;66.99;100951.15;111254;1258;19685;-85
2022/07/23 02:17:11;;;;;;;;;46.67;40.33;;;;;22.93;67.34;100949.52;111335;1257;20437;-84
2022/07/23 02:19:38;;;;;;;;;43.33;39.33;;;;;22.95;67.26;100953.52;111317;1258;26839;-84
2022/07/23 02:22:05;;;;;;;;;44.00;39.67;;;;;22.98;67.24;100956.05;111316;1257;19526;-85
2022/07/23 02:24:33;;;;;;;;;44.33;40.00;;;;;23.04;67.38;100952.02;111396;1257;20223;-87
2022/07/23 02:27:00;;;;;;;;;47.00;38.00;;;;;22.92;67.77;100942.77;111299;1258;19381;-85
2022/07/23 02:29:28;;;;;;;;;49.00;40.00;;;;;22.80;68.27;100938.18;111312;1257;19784;-85
2022/07/23 02:31:55;;;;;;;;;49.67;39.67;;;;;22.72;68.63;100946.30;111270;1257;23596;-85
2022/07/23 02:34:22;;;;;;;;;49.67;43.00;;;;;22.78;68.57;100946.65;111281;1257;19390;-85
2022/07/23 02:36:49;;;;;;;;;50.00;41.00;;;;;22.76;68.58;100947.80;111336;1257;22153;-86
2022/07/23 02:39:17;;;;;;;;;52.00;43.00;;;;;22.69;68.79;100945.36;111306;1257;24017;-85
2022/07/23 02:41:44;;;;;;;;;48.67;40.67;;;;;22.65;68.81;100943.95;111301;1257;19215;-84
2022/07/23 02:44:11;;;;;;;;;47.00;39.33;;;;;22.73;68.80;100941.95;111293;1258;19739;-85
2022/07/23 02:46:39;;;;;;;;;45.00;37.33;;;;;22.85;68.46;100948.86;111245;1257;23254;-84
2022/07/23 02:49:06;;;;;;;;;47.00;40.00;;;;;22.84;68.40;100952.30;111297;1258;19381;-85
2022/07/23 02:51:33;;;;;;;;;42.33;39.33;;;;;22.81;68.53;100950.14;111369;1258;19577;-85
2022/07/23 02:54:00;;;;;;;;;43.67;37.67;;;;;22.82;68.42;100944.54;111316;1257;20288;-85
2022/07/23 02:56:28;;;;;;;;;46.00;39.67;;;;;22.64;68.90;100950.36;111286;1257;19112;-84
2022/07/23 02:58:55;;;;;;;;;47.00;41.67;;;;;22.44;69.61;100949.98;111321;1257;22521;-85
2022/07/23 03:01:23;;;;;;;;;50.33;41.33;;;;;22.36;69.83;100954.98;111323;1257;20450;-85
2022/07/23 03:03:50;;;;;;;;;49.33;41.67;;;;;22.38;70.02;100961.42;111388;1257;20587;-85
2022/07/23 03:06:18;;;;;;;;;46.33;40.00;;;;;22.50;69.74;100957.52;111316;1257;26347;-84
2022/07/23 03:08:45;;;;;;;;;49.00;39.00;;;;;22.67;69.10;100960.03;111331;1257;21603;-84
2022/07/23 03:11:12;;;;;;;;;45.00;38.50;;;;;22.57;69.10;100962.77;111328;1258;25325;-84
2022/07/23 03:13:40;;;;;;;;;46.67;39.33;;;;;22.48;69.53;100962.98;111344;1257;20902;-84
2022/07/23 03:16:07;;;;;;;;;44.33;40.00;;;;;22.41;69.56;100958.23;111327;1258;20392;-85
2022/07/23 03:18:34;;;;;;;;;48.00;38.00;;;;;22.38;69.81;100952.48;111375;1258;22927;-85
2022/07/23 03:21:01;;;;;;;;;46.33;41.67;;;;;22.45;69.67;100955.15;111323;1258;21718;-85
2022/07/23 03:23:29;;;;;;;;;49.00;40.00;;;;;22.47;69.87;100962.25;111310;1257;20347;-85
2022/07/23 03:25:56;;;;;;;;;43.00;40.00;;;;;22.54;69.58;100962.84;111283;1258;23096;-85
2022/07/23 03:28:23;;;;;;;;;42.33;39.00;;;;;22.36;69.96;100961.00;111268;1258;19625;-85
2022/07/23 03:30:50;;;;;;;;;45.67;41.00;;;;;22.31;70.27;100963.05;111348;1258;20302;-85
2022/07/23 03:33:18;;;;;;;;;53.00;41.50;;;;;22.37;70.45;100966.27;111315;1258;19313;-85
2022/07/23 03:35:45;;;;;;;;;53.33;40.33;;;;;22.41;69.96;100961.57;111280;1258;21260;-86
2022/07/23 03:38:12;;;;;;;;;46.00;41.00;;;;;22.43;70.16;100953.44;111396;1257;23578;-85
2022/07/23 03:40:40;;;;;;;;;50.00;41.00;;;;;22.44;70.13;100950.05;111602;1257;19090;-85
2022/07/23 03:43:07;;;;;;;;;47.00;40.67;;;;;22.51;70.05;100950.73;111361;1258;21676;-85
2022/07/23 03:45:34;;;;;;;;;44.00;39.00;;;;;22.83;69.21;100945.36;111314;1257;21966;-86
2022/07/23 03:48:01;;;;;;;;;44.67;39.00;;;;;23.08;68.11;100942.11;111307;1257;23560;-86
2022/07/23 03:50:29;;;;;;;;;46.33;40.67;;;;;23.09;68.00;100943.01;111284;1257;22947;-85
2022/07/23 03:52:56;;;;;;;;;44.00;40.00;;;;;22.73;68.68;100946.77;111320;1257;20120;-85
2022/07/23 03:55:23;;;;;;;;;45.67;39.33;;;;;22.44;69.62;100951.98;111177;1257;19297;-85
2022/07/23 03:57:50;;;;;;;;;53.00;42.00;;;;;22.38;70.22;100955.27;111379;1258;19899;-85
2022/07/23 04:00:18;;;;;;;;;50.00;40.00;;;;;22.31;70.52;100951.55;111322;1257;21830;-85
2022/07/23 04:02:45;;;;;;;;;48.00;39.50;;;;;22.59;69.83;100948.39;111299;1258;22138;-85
2022/07/23 04:05:12;;;;;;;;;51.67;42.00;;;;;22.48;69.78;100950.87;111307;1257;19717;-85
2022/07/23 04:07:40;;;;;;;;;51.50;41.50;;;;;22.56;69.92;100933.98;111316;1258;20276;-85
2022/07/23 04:10:07;;;;;;;;;55.33;42.00;;;;;22.91;68.74;100927.45;111301;1258;23516;-85
2022/07/23 04:12:35;;;;;;;;;41.33;38.00;;;;;22.82;68.60;100930.52;111346;1257;22979;-85
2022/07/23 04:15:02;;;;;;;;;49.67;42.00;;;;;22.79;68.86;100927.96;111280;1258;22112;-86
2022/07/23 04:17:30;;;;;;;;;52.33;41.67;;;;;22.74;68.93;100925.09;111265;1257;19251;-85
2022/07/23 04:19:57;;;;;;;;;48.50;39.50;;;;;22.90;68.46;100919.36;111320;1257;19450;-86
2022/07/23 04:22:24;;;;;;;;;50.00;42.00;;;;;22.79;68.62;100918.21;111237;1258;20868;-86
2022/07/23 04:24:52;;;;;;;;;47.00;41.00;;;;;22.66;68.93;100913.25;111224;1257;19462;-86
2022/07/23 04:27:19;;;;;;;;;51.50;42.50;;;;;22.63;69.18;100917.61;111112;1257;26924;-86
2022/07/23 04:29:46;;;;;;;;;50.00;41.00;;;;;22.43;69.51;100925.55;111315;1258;20309;-87
2022/07/23 04:32:14;;;;;;;;;49.67;40.67;;;;;22.42;69.81;100921.05;111314;1257;21981;-87
2022/07/23 04:34:41;;;;;;;;;47.00;39.50;;;;;22.54;69.64;100914.55;111310;1258;21136;-86
2022/07/23 04:37:08;;;;;;;;;43.33;39.67;;;;;22.86;68.98;100910.55;111249;1257;20348;-86
2022/07/23 04:39:36;;;;;;;;;53.00;41.67;;;;;22.91;68.52;100908.64;111389;1258;19264;-86
2022/07/23 04:42:03;;;;;;;;;51.33;41.33;;;;;22.57;69.53;100912.96;111360;1257;19794;-86
2022/07/23 04:44:30;;;;;;;;;50.00;42.00;;;;;22.55;69.89;100910.59;111300;1258;23423;-87
2022/07/23 04:46:57;;;;;;;;;51.33;41.67;;;;;22.63;69.61;100911.09;111330;1258;19345;-86
2022/07/23 04:49:25;;;;;;;;;56.00;43.33;;;;;22.63;69.90;100905.30;111321;1258;23851;-87
2022/07/23 04:51:52;;;;;;;;;52.50;43.50;;;;;22.58;70.16;100903.52;111391;1258;20240;-87
2022/07/23 04:54:19;;;;;;;;;49.67;42.00;;;;;22.52;70.35;100906.93;111300;1257;19165;-84
2022/07/23 04:56:47;;;;;;;;;54.00;42.00;;;;;22.63;70.30;100897.67;111310;1257;19542;-86
2022/07/23 04:59:14;;;;;;;;;56.33;45.00;;;;;22.71;70.16;100901.55;111297;1257;23549;-84
2022/07/23 05:01:42;;;;;;;;;50.33;41.67;;;;;22.75;70.01;100901.23;111322;1258;20516;-84
2022/07/23 05:04:10;;;;;;;;;53.00;42.00;;;;;22.60;70.51;100904.19;111285;1258;19626;-85
2022/07/23 05:06:37;;;;;;;;;49.33;41.00;;;;;22.71;70.61;100907.94;111382;1258;20767;-86
2022/07/23 05:09:04;;;;;;;;;46.00;41.00;;;;;22.94;69.89;100908.05;111410;1257;20172;-85
2022/07/23 05:11:31;;;;;;;;;49.50;42.50;;;;;23.03;69.95;100905.75;111314;1258;20796;-86
2022/07/23 05:13:59;;;;;;;;;51.67;42.00;;;;;23.06;69.82;100913.59;111324;1257;20368;-85
2022/07/23 05:16:26;;;;;;;;;48.33;42.00;;;;;22.95;70.34;100911.41;111278;1257;21065;-86
2022/07/23 05:18:53;;;;;;;;;52.00;40.00;;;;;22.95;70.60;100909.07;111386;1257;19541;-86
2022/07/23 05:21:21;;;;;;;;;52.00;43.67;;;;;23.14;70.27;100904.75;111308;1257;20257;-85
2022/07/23 05:23:48;;;;;;;;;51.00;42.00;;;;;23.02;70.54;100903.48;111302;1258;19220;-86
2022/07/23 05:26:15;;;;;;;;;48.67;41.67;;;;;23.15;70.29;100902.54;111253;1258;20956;-85
2022/07/23 05:28:43;;;;;;;;;48.33;40.33;;;;;23.12;69.97;100899.84;111278;1257;20403;-86
2022/07/23 05:31:10;;;;;;;;;41.33;37.00;;;;;23.13;69.89;100894.86;111208;1258;20203;-85
2022/07/23 05:33:37;;;;;;;;;34.67;34.00;;;;;23.14;69.48;100892.52;111226;1258;21081;-86
2022/07/23 05:36:04;;;;;;;;;38.33;33.00;;;;;23.14;68.86;100888.64;111250;1257;21489;-86
2022/07/23 05:38:32;;;;;;;;;36.67;31.67;;;;;23.35;67.91;100889.73;111277;1258;19387;-87
2022/07/23 05:40:59;;;;;;;;;34.00;30.67;;;;;23.38;67.19;100887.73;111244;1257;19737;-86
2022/07/23 05:43:26;;;;;;;;;37.00;31.67;;;;;23.33;67.19;100888.38;111290;1258;21599;-85
2022/07/23 05:45:54;;;;;;;;;31.50;28.50;;;;;23.37;66.90;100883.27;111279;1257;19239;-84
2022/07/23 05:48:21;;;;;;;;;37.00;35.00;;;;;23.44;66.88;100881.98;111446;1257;22539;-84
2022/07/23 05:50:49;;;;;;;;;36.33;34.00;;;;;23.33;66.99;100882.12;111475;1258;20304;-84
2022/07/23 05:53:16;;;;;;;;;40.67;34.33;;;;;23.26;67.19;100877.95;111297;1258;20147;-83
2022/07/23 05:55:43;;;;;;;;;38.00;33.33;;;;;23.24;67.39;100873.05;111307;1258;19602;-84
2022/07/23 05:58:11;;;;;;;;;31.33;30.67;;;;;23.42;66.90;100871.55;111304;1258;20395;-84
2022/07/23 06:00:38;;;;;;;;;35.00;32.00;;;;;23.57;66.67;100868.88;111332;1257;19551;-84
2022/07/23 06:03:05;;;;;;;;;39.00;35.00;;;;;23.74;66.08;100860.30;111297;1257;19796;-84
2022/07/23 06:05:33;;;;;;;;;44.00;36.00;;;;;23.55;66.60;100862.45;111351;1258;22055;-84
2022/07/23 06:08:00;;;;;;;;;36.67;31.67;;;;;23.43;67.07;100859.11;111309;1258;21702;-85
2022/07/23 06:10:28;;;;;;;;;37.33;35.33;;;;;23.60;66.67;100863.77;111259;1258;22042;-85
2022/07/23 06:12:55;;;;;;;;;33.33;30.67;;;;;23.64;66.20;100865.06;111273;1258;20266;-86
2022/07/23 06:15:22;;;;;;;;;35.67;33.00;;;;;23.66;66.08;100866.91;111250;1257;19308;-85
2022/07/23 06:17:50;;;;;;;;;34.33;28.67;;;;;23.66;65.95;100867.08;111209;1258;20260;-84
2022/07/23 06:20:17;;;;;;;;;36.33;32.67;;;;;23.84;65.64;100863.01;111355;1258;20283;-84
2022/07/23 06:22:44;;;;;;;;;31.67;29.67;;;;;23.89;65.24;100859.61;111307;1257;19211;-86
2022/07/23 06:25:12;;;;;;;;;30.00;28.00;;;;;23.87;65.18;100851.85;111259;1258;23827;-84
2022/07/23 06:27:39;;;;;;;;;33.67;28.00;;;;;24.03;64.79;100853.43;111345;1258;20582;-83
2022/07/23 06:30:08;;;;;;;;;35.50;31.00;;;;;24.16;64.46;100842.95;111318;1258;19325;-84
2022/07/23 06:32:35;;;;;;;;;33.67;30.33;;;;;24.34;64.05;100846.77;111271;1258;19630;-85
2022/07/23 06:35:02;;;;;;;;;32.00;28.00;;;;;24.49;63.57;100842.58;111300;1258;22061;-88
2022/07/23 06:37:30;;;;;;;;;32.00;27.00;;;;;24.72;62.94;100843.28;111183;1258;19414;-85
2022/07/23 06:39:57;;;;;;;;;33.50;32.00;;;;;24.81;62.44;100838.58;111378;1257;19976;-85
2022/07/23 06:42:24;;;;;;;;;30.00;28.00;;;;;24.88;62.14;100844.39;111209;1258;22355;-85
2022/07/23 06:44:52;;;;;;;;;34.00;27.00;;;;;24.94;62.01;100848.23;111097;1258;20544;-83
2022/07/23 06:47:19;;;;;;;;;30.00;27.50;;;;;24.98;61.72;100850.58;111083;1258;20033;-84
2022/07/23 06:49:46;;;;;;;;;32.33;26.33;;;;;24.98;61.82;100855.55;110935;1259;21768;-86
2022/07/23 06:52:13;;;;;;;;;34.33;28.67;;;;;25.04;61.54;100857.64;111215;1258;22941;-89
2022/07/23 06:54:41;;;;;;;;;30.00;27.33;;;;;25.08;61.46;100867.95;111380;1258;22533;-86
2022/07/23 06:57:08;;;;;;;;;32.50;25.00;;;;;25.12;61.45;100864.81;111339;1257;22898;-87
2022/07/23 06:59:40;;;;;;;;;27.67;25.33;;;;;25.25;61.35;100862.05;111332;1257;22215;-85
2022/07/23 07:02:07;;;;;;;;;33.00;29.67;;;;;25.29;61.21;100865.11;111378;1258;19717;-86
2022/07/23 07:04:34;;;;;;;;;26.00;25.00;;;;;25.37;61.57;100862.48;111442;1257;29689;-84
2022/07/23 07:07:02;;;;;;;;;29.67;25.00;;;;;25.42;61.61;100859.77;111374;1256;19497;-84
2022/07/23 07:09:29;;;;;;;;;29.33;27.67;;;;;25.49;61.56;100859.23;111366;1258;19524;-87
2022/07/23 07:11:56;;;;;;;;;25.67;25.33;;;;;25.46;60.92;100856.95;111283;1258;20263;-84
2022/07/23 07:14:23;;;;;;;;;26.00;25.00;;;;;25.44;60.93;100850.96;111105;1258;20357;-87
2022/07/23 07:16:51;;;;;;;;;26.33;26.00;;;;;25.51;60.92;100853.00;111083;1258;23842;-86
2022/07/23 07:19:18;;;;;;;;;25.00;24.33;;;;;25.57;60.76;100849.34;111246;1258;20297;-88
2022/07/23 07:21:45;;;;;;;;;26.00;25.00;;;;;25.64;60.66;100849.25;111352;1257;19391;-85
2022/07/23 07:24:13;;;;;;;;;25.00;24.00;;;;;25.76;60.67;100847.95;111245;1257;19665;-86
2022/07/23 07:26:40;;;;;;;;;31.33;26.00;;;;;25.80;60.45;100850.77;111366;1258;23618;-86
2022/07/23 07:29:07;;;;;;;;;28.00;24.33;;;;;25.80;60.29;100852.41;111271;1258;23500;-86
2022/07/23 07:31:34;;;;;;;;;25.67;24.33;;;;;25.92;60.35;100855.43;111314;1257;19540;-87
2022/07/23 07:34:02;;;;;;;;;25.00;24.67;;;;;25.92;60.15;100852.94;111322;1257;20921;-84
2022/07/23 07:36:29;;;;;;;;;21.00;19.67;;;;;25.95;59.92;100849.77;111395;1258;19349;-85
2022/07/23 07:38:56;;;;;;;;;19.33;19.00;;;;;26.04;59.43;100849.83;111355;1257;19665;-85
2022/07/23 07:41:25;;;;;;;;;22.67;22.00;;;;;26.04;58.86;100844.08;111021;1257;271267;-84
2022/07/23 07:43:53;;;;;;;;;21.00;20.00;;;;;26.04;58.60;100847.59;111300;1257;22915;-83
2022/07/23 07:46:20;;;;;;;;;24.67;24.00;;;;;25.96;58.67;100843.52;111326;1257;27170;-83
2022/07/23 07:48:48;;;;;;;;;21.00;19.67;;;;;25.95;58.51;100839.45;111358;1257;20372;-84
2022/07/23 07:51:15;;;;;;;;;25.00;21.00;;;;;25.99;58.31;100841.71;111336;1258;19292;-84
2022/07/23 07:53:42;;;;;;;;;20.50;19.00;;;;;26.14;57.74;100839.82;111304;1257;22932;-83
2022/07/23 07:56:10;;;;;;;;;22.00;20.00;;;;;26.07;57.73;100837.33;111246;1258;20593;-85
2022/07/23 07:58:37;;;;;;;;;19.00;18.00;;;;;25.92;58.30;100836.96;111323;1258;19138;-84
2022/07/23 08:01:04;;;;;;;;;19.00;18.67;;;;;25.95;58.35;100837.82;111316;1257;19555;-85
2022/07/23 08:03:31;;;;;;;;;20.00;19.00;;;;;26.09;57.89;100834.36;111378;1258;23273;-84
2022/07/23 08:05:59;;;;;;;;;21.00;20.00;;;;;26.22;57.57;100831.83;111334;1258;23168;-88
2022/07/23 08:08:26;;;;;;;;;18.33;16.00;;;;;26.21;57.54;100833.48;111177;1256;19772;-84
2022/07/23 08:10:54;;;;;;;;;20.67;18.33;;;;;26.16;57.71;100832.25;111244;1258;23808;-85
2022/07/23 08:13:21;;;;;;;;;19.00;19.00;;;;;26.08;58.03;100834.70;111302;1258;25289;-87
2022/07/23 08:15:48;;;;;;;;;19.33;18.67;;;;;26.02;58.13;100828.52;111236;1258;19489;-88
2022/07/23 08:18:16;;;;;;;;;20.00;20.00;;;;;26.00;58.44;100831.56;111238;1258;20312;-87
2022/07/23 08:20:43;;;;;;;;;20.33;19.33;;;;;25.99;58.52;100826.29;111282;1256;20597;-87
2022/07/23 08:23:10;;;;;;;;;20.00;18.00;;;;;25.98;58.66;100825.66;111292;1255;20575;-87
2022/07/23 08:25:37;;;;;;;;;21.50;19.00;;;;;25.99;59.08;100823.92;111310;1255;21735;-86
2022/07/23 08:28:05;;;;;;;;;20.00;19.00;;;;;25.99;59.32;100824.48;111277;1257;19372;-85
2022/07/23 08:30:32;;;;;;;;;16.33;16.33;;;;;26.00;59.35;100822.52;111344;1255;23728;-86
2022/07/23 08:33:00;;;;;;;;;18.67;16.33;;;;;26.03;59.27;100825.65;111203;1255;22556;-85
2022/07/23 08:35:28;;;;;;;;;20.00;19.00;;;;;26.10;59.15;100822.63;111260;1258;23638;-86
2022/07/23 08:37:55;;;;;;;;;18.33;16.33;;;;;26.12;59.00;100821.39;111224;1258;19712;-86
2022/07/23 08:40:22;;;;;;;;;18.00;15.00;;;;;26.12;59.17;100820.98;111152;1258;20473;-85
2022/07/23 08:42:50;;;;;;;;;18.00;16.00;;;;;26.10;59.18;100814.42;111541;1255;19289;-85
2022/07/23 08:45:17;;;;;;;;;18.00;16.00;;;;;26.10;59.16;100809.14;111351;1255;20570;-86
2022/07/23 08:47:45;;;;;;;;;18.00;15.00;;;;;26.10;59.19;100811.26;111278;1258;21270;-84
2022/07/23 08:50:12;;;;;;;;;15.67;15.00;;;;;26.13;59.12;100813.40;111362;1255;19329;-83
2022/07/23 08:52:39;;;;;;;;;18.33;17.67;;;;;26.14;58.90;100812.10;111298;1256;19851;-84
2022/07/23 08:55:07;;;;;;;;;18.00;16.00;;;;;26.16;58.99;100817.89;111501;1255;20527;-85
2022/07/23 08:57:34;;;;;;;;;16.67;15.00;;;;;26.22;58.70;100819.08;111320;1255;21199;-83
2022/07/23 09:00:01;;;;;;;;;19.00;16.00;;;;;26.22;58.72;100814.71;111321;1255;19664;-84
2022/07/23 09:02:29;;;;;;;;;15.33;15.33;;;;;26.25;58.74;100812.42;111376;1255;20429;-84
2022/07/23 09:04:56;;;;;;;;;14.67;14.00;;;;;26.22;58.88;100812.90;111371;1257;19373;-86
2022/07/23 09:07:23;;;;;;;;;15.67;15.67;;;;;26.20;58.75;100809.34;111336;1258;19727;-85
2022/07/23 09:09:51;;;;;;;;;16.00;15.33;;;;;26.20;58.81;100813.27;111353;1257;20235;-85
2022/07/23 09:12:18;;;;;;;;;20.00;18.67;;;;;26.21;58.89;100812.99;111328;1257;23489;-83
2022/07/23 09:14:46;;;;;;;;;16.67;16.00;;;;;26.23;59.18;100815.98;111294;1257;19515;-86
2022/07/23 09:17:14;;;;;;;;;16.00;15.00;;;;;26.21;59.40;100819.73;111337;1258;20589;-84
2022/07/23 09:19:41;;;;;;;;;15.67;15.00;;;;;26.22;59.38;100817.98;111256;1258;19654;-84
2022/07/23 09:22:09;;;;;;;;;18.33;15.33;;;;;26.22;59.59;100819.61;111281;1258;22589;-85
2022/07/23 09:24:37;;;;;;;;;16.00;15.00;;;;;26.21;59.81;100827.77;111328;1257;20262;-87
2022/07/23 09:27:04;;;;;;;;;16.67;15.67;;;;;26.25;59.74;100832.04;111334;1257;20408;-85
2022/07/23 09:29:31;;;;;;;;;14.67;13.33;;;;;26.28;59.65;100835.30;111341;1258;19504;-84
2022/07/23 09:31:59;;;;;;;;;16.00;16.00;;;;;26.27;59.69;100838.27;111382;1257;21707;-84
2022/07/23 09:34:26;;;;;;;;;19.67;18.67;;;;;26.24;59.73;100836.31;111318;1258;19343;-85
2022/07/23 09:36:53;;;;;;;;;16.00;14.33;;;;;26.23;59.86;100838.56;111343;1257;21039;-84
2022/07/23 09:39:21;;;;;;;;;16.67;16.00;;;;;26.24;59.91;100837.71;111363;1257;23059;-83
2022/07/23 09:41:48;;;;;;;;;20.00;19.00;;;;;26.23;59.89;100830.48;111300;1258;19342;-85
2022/07/23 09:44:15;;;;;;;;;14.67;14.67;;;;;26.24;59.98;100831.28;111222;1258;19627;-86
2022/07/23 09:46:43;;;;;;;;;20.00;18.67;;;;;26.22;59.99;100824.98;111355;1258;21730;-85
2022/07/23 09:49:10;;;;;;;;;16.67;15.00;;;;;26.23;59.98;100819.04;111293;1258;22321;-87
2022/07/23 09:51:37;;;;;;;;;17.33;16.67;;;;;26.26;60.16;100826.39;111385;1257;19567;-83
2022/07/23 09:54:05;;;;;;;;;18.50;15.50;;;;;26.24;60.05;100834.16;111210;1258;20404;-83
2022/07/23 09:56:32;;;;;;;;;16.00;15.00;;;;;26.25;59.93;100839.66;111297;1258;19280;-85
2022/07/23 09:59:04;;;;;;;;;14.00;14.00;;;;;26.30;59.90;100849.50;111312;1257;22476;-85
2022/07/23 10:01:32;;;;;;;;;16.00;15.00;;;;;26.29;60.07;100851.75;111393;1258;20265;-90
2022/07/23 10:03:59;;;;;;;;;19.00;16.33;;;;;26.32;59.65;100860.20;111420;1257;19367;-91
2022/07/23 10:06:26;;;;;;;;;18.67;16.00;;;;;26.36;59.04;100865.66;111368;1258;22329;-89
2022/07/23 10:08:53;;;;;;;;;15.00;15.00;;;;;26.41;58.53;100868.64;111398;1256;21641;-88
2022/07/23 10:11:21;;;;;;;;;19.33;17.00;;;;;26.42;58.43;100866.87;111482;1255;22021;-90
2022/07/23 10:13:54;;;;;;;;;21.00;20.00;;;;;26.38;58.35;100872.34;111314;1258;21985;-88
2022/07/23 10:16:22;;;;;;;;;19.67;16.00;;;;;26.39;57.91;100870.36;111260;1258;20338;-85
2022/07/23 10:18:49;;;;;;;;;19.00;16.00;;;;;26.43;57.40;100867.67;111126;1258;19448;-83
2022/07/23 10:21:17;;;;;;;;;19.67;17.33;;;;;26.46;56.98;100866.71;111300;1256;19890;-84
2022/07/23 10:23:44;;;;;;;;;16.00;16.00;;;;;26.46;56.85;100868.40;111422;1254;20367;-82
2022/07/23 10:26:12;;;;;;;;;19.33;17.33;;;;;26.43;56.73;100875.29;111413;1256;23508;-84
2022/07/23 10:28:39;;;;;;;;;20.33;20.00;;;;;26.40;56.52;100879.75;111278;1256;19807;-86
2022/07/23 10:31:06;;;;;;;;;19.00;16.33;;;;;26.44;56.44;100880.91;111409;1256;21472;-84
2022/07/23 10:33:34;;;;;;;;;17.00;17.00;;;;;26.44;56.20;100880.52;111281;1257;19434;-83
2022/07/23 10:36:01;;;;;;;;;19.00;17.33;;;;;26.45;56.25;100880.06;111192;1258;20024;-84
2022/07/23 10:38:28;;;;;;;;;25.50;21.00;;;;;26.43;56.11;100885.67;111346;1257;20379;-84
2022/07/23 10:40:56;;;;;;;;;19.00;19.00;;;;;26.42;55.98;100891.86;111294;1258;19238;-85
2022/07/23 10:43:23;;;;;;;;;23.00;21.00;;;;;26.40;56.13;100885.13;111265;1257;21045;-84
2022/07/23 10:45:51;;;;;;;;;21.67;20.00;;;;;26.38;56.11;100860.92;111299;1258;20307;-85
2022/07/23 10:48:18;;;;;;;;;20.67;20.00;;;;;26.36;56.41;100871.88;111201;1258;19455;-83
2022/07/23 10:50:45;;;;;;;;;17.00;15.00;;;;;26.34;57.03;100881.34;111199;1256;23550;-84
2022/07/23 10:53:13;;;;;;;;;21.00;20.00;;;;;26.30;57.29;100875.13;111329;1256;21016;-85
2022/07/23 10:55:41;;;;;;;;;20.50;19.00;;;;;26.28;57.88;100881.94;111362;1256;19314;-85
2022/07/23 10:58:08;;;;;;;;;22.00;21.00;;;;;26.24;58.38;100899.34;111352;1255;19629;-83
2022/07/23 11:00:35;;;;;;;;;22.00;19.00;;;;;26.19;58.85;100913.06;111361;1257;20925;-84
2022/07/23 11:03:06;;;;;;;;;21.00;20.00;;;;;26.19;59.31;100913.02;111290;1258;21660;-84